sensor_id;sensor_type;location;lat;lon;timestamp;P1;durP1;ratioP1;P2;durP2;ratioP2
59089;SDS011;44878;50.102;18.982;2023-02-19T00:00:29;7.53;;;4.00;;
59089;SDS011;44878;50.102;18.982;2023-02-19T00:03:15;5.33;;;3.50;;
59089;SDS011;44878;50.102;18.982;2023-02-19T00:05:41;5.10;;;3.57;;
59089;SDS011;44878;50.102;18.982;2023-02-19T00:08:07;5.93;;;3.90;;
59089;SDS011;44878;50.102;18.982;2023-02-19T00:10:33;5.60;;;3.77;;
59089;SDS011;44878;50.102;18.982;2023-02-19T00:12:59;4.73;;;3.53;;
59089;SDS011;44878;50.102;18.982;2023-02-19T00:15:24;6.07;;;4.20;;
59089;SDS011;44878;50.102;18.982;2023-02-19T00:17:50;5.13;;;3.80;;
59089;SDS011;44878;50.102;18.982;2023-02-19T00:20:16;6.43;;;4.23;;
59089;SDS011;44878;50.102;18.982;2023-02-19T00:22:42;5.03;;;3.57;;
59089;SDS011;44878;50.102;18.982;2023-02-19T00:25:08;6.53;;;3.90;;
59089;SDS011;44878;50.102;18.982;2023-02-19T00:27:34;4.13;;;2.90;;
59089;SDS011;44878;50.102;18.982;2023-02-19T00:29:59;4.67;;;3.40;;
59089;SDS011;44878;50.102;18.982;2023-02-19T00:32:25;4.63;;;3.13;;
59089;SDS011;44878;50.102;18.982;2023-02-19T00:34:51;6.17;;;3.60;;
59089;SDS011;44878;50.102;18.982;2023-02-19T00:37:17;5.30;;;3.67;;
59089;SDS011;44878;50.102;18.982;2023-02-19T00:39:43;4.73;;;3.10;;
59089;SDS011;44878;50.102;18.982;2023-02-19T00:42:09;5.00;;;3.67;;
59089;SDS011;44878;50.102;18.982;2023-02-19T00:44:34;5.30;;;3.30;;
59089;SDS011;44878;50.102;18.982;2023-02-19T00:47:00;4.43;;;3.23;;
59089;SDS011;44878;50.102;18.982;2023-02-19T00:49:26;5.50;;;3.80;;
59089;SDS011;44878;50.102;18.982;2023-02-19T00:51:52;5.37;;;4.10;;
59089;SDS011;44878;50.102;18.982;2023-02-19T00:54:18;5.30;;;3.67;;
59089;SDS011;44878;50.102;18.982;2023-02-19T00:56:44;5.57;;;4.10;;
59089;SDS011;44878;50.102;18.982;2023-02-19T00:59:10;5.03;;;4.20;;
59089;SDS011;44878;50.102;18.982;2023-02-19T01:01:36;7.17;;;6.00;;
59089;SDS011;44878;50.102;18.982;2023-02-19T01:04:02;8.00;;;6.83;;
59089;SDS011;44878;50.102;18.982;2023-02-19T01:06:28;8.30;;;7.50;;
59089;SDS011;44878;50.102;18.982;2023-02-19T01:08:55;9.98;;;9.05;;
59089;SDS011;44878;50.102;18.982;2023-02-19T01:11:21;12.37;;;11.07;;
59089;SDS011;44878;50.102;18.982;2023-02-19T01:13:47;10.77;;;9.70;;
59089;SDS011;44878;50.102;18.982;2023-02-19T01:16:20;12.60;;;11.40;;
59089;SDS011;44878;50.102;18.982;2023-02-19T01:18:46;11.40;;;10.40;;
59089;SDS011;44878;50.102;18.982;2023-02-19T01:21:13;14.57;;;13.27;;
59089;SDS011;44878;50.102;18.982;2023-02-19T01:23:39;16.05;;;14.65;;
59089;SDS011;44878;50.102;18.982;2023-02-19T01:26:07;14.67;;;13.37;;
59089;SDS011;44878;50.102;18.982;2023-02-19T01:28:32;14.32;;;13.13;;
59089;SDS011;44878;50.102;18.982;2023-02-19T01:31:02;13.87;;;12.47;;
59089;SDS011;44878;50.102;18.982;2023-02-19T01:33:29;16.20;;;14.80;;
59089;SDS011;44878;50.102;18.982;2023-02-19T01:35:55;14.27;;;12.97;;
59089;SDS011;44878;50.102;18.982;2023-02-19T01:38:21;12.73;;;11.63;;
59089;SDS011;44878;50.102;18.982;2023-02-19T01:40:54;12.60;;;11.47;;
59089;SDS011;44878;50.102;18.982;2023-02-19T01:43:20;11.50;;;10.50;;
59089;SDS011;44878;50.102;18.982;2023-02-19T01:45:46;12.87;;;11.70;;
59089;SDS011;44878;50.102;18.982;2023-02-19T01:48:16;12.20;;;11.20;;
59089;SDS011;44878;50.102;18.982;2023-02-19T01:50:45;10.13;;;9.17;;
59089;SDS011;44878;50.102;18.982;2023-02-19T01:53:12;10.43;;;9.53;;
59089;SDS011;44878;50.102;18.982;2023-02-19T01:55:39;8.77;;;7.97;;
59089;SDS011;44878;50.102;18.982;2023-02-19T01:58:05;10.77;;;9.77;;
59089;SDS011;44878;50.102;18.982;2023-02-19T02:00:31;13.07;;;8.90;;
59089;SDS011;44878;50.102;18.982;2023-02-19T02:02:57;10.10;;;9.20;;
59089;SDS011;44878;50.102;18.982;2023-02-19T02:05:39;9.43;;;8.63;;
59089;SDS011;44878;50.102;18.982;2023-02-19T02:08:07;9.23;;;8.43;;
59089;SDS011;44878;50.102;18.982;2023-02-19T02:10:52;8.17;;;7.37;;
59089;SDS011;44878;50.102;18.982;2023-02-19T02:13:18;9.93;;;9.03;;
59089;SDS011;44878;50.102;18.982;2023-02-19T02:15:48;8.90;;;8.10;;
59089;SDS011;44878;50.102;18.982;2023-02-19T02:26:50;7.33;;;6.63;;
59089;SDS011;44878;50.102;18.982;2023-02-19T02:32:16;6.23;;;5.43;;
59089;SDS011;44878;50.102;18.982;2023-02-19T02:34:47;6.20;;;5.60;;
59089;SDS011;44878;50.102;18.982;2023-02-19T02:37:14;6.50;;;5.90;;
59089;SDS011;44878;50.102;18.982;2023-02-19T02:39:41;6.63;;;5.70;;
59089;SDS011;44878;50.102;18.982;2023-02-19T02:42:09;6.90;;;6.20;;
59089;SDS011;44878;50.102;18.982;2023-02-19T02:48:23;6.10;;;5.40;;
59089;SDS011;44878;50.102;18.982;2023-02-19T02:50:49;7.07;;;5.60;;
59089;SDS011;44878;50.102;18.982;2023-02-19T02:53:20;5.90;;;5.30;;
59089;SDS011;44878;50.102;18.982;2023-02-19T02:56:04;6.17;;;5.53;;
59089;SDS011;44878;50.102;18.982;2023-02-19T02:58:31;6.13;;;5.53;;
59089;SDS011;44878;50.102;18.982;2023-02-19T03:00:59;5.82;;;5.22;;
59089;SDS011;44878;50.102;18.982;2023-02-19T03:03:44;6.00;;;5.13;;
59089;SDS011;44878;50.102;18.982;2023-02-19T03:06:12;5.85;;;5.15;;
59089;SDS011;44878;50.102;18.982;2023-02-19T03:09:01;5.03;;;4.53;;
59089;SDS011;44878;50.102;18.982;2023-02-19T03:11:30;5.70;;;4.83;;
59089;SDS011;44878;50.102;18.982;2023-02-19T03:14:17;6.03;;;5.27;;
59089;SDS011;44878;50.102;18.982;2023-02-19T03:19:49;5.13;;;4.60;;
59089;SDS011;44878;50.102;18.982;2023-02-19T03:24:44;5.73;;;5.00;;
59089;SDS011;44878;50.102;18.982;2023-02-19T03:27:30;5.63;;;4.60;;
59089;SDS011;44878;50.102;18.982;2023-02-19T03:29:57;5.55;;;5.03;;
59089;SDS011;44878;50.102;18.982;2023-02-19T03:32:28;5.50;;;4.70;;
59089;SDS011;44878;50.102;18.982;2023-02-19T03:35:12;6.30;;;5.70;;
59089;SDS011;44878;50.102;18.982;2023-02-19T03:37:46;7.33;;;5.07;;
59089;SDS011;44878;50.102;18.982;2023-02-19T03:40:13;6.37;;;5.77;;
59089;SDS011;44878;50.102;18.982;2023-02-19T03:46:19;6.73;;;5.93;;
59089;SDS011;44878;50.102;18.982;2023-02-19T03:48:55;6.70;;;6.10;;
59089;SDS011;44878;50.102;18.982;2023-02-19T04:01:28;7.83;;;7.03;;
59089;SDS011;44878;50.102;18.982;2023-02-19T04:04:38;9.50;;;7.10;;
59089;SDS011;44878;50.102;18.982;2023-02-19T04:06:45;7.43;;;6.73;;
59089;SDS011;44878;50.102;18.982;2023-02-19T04:09:17;9.97;;;9.07;;
59089;SDS011;44878;50.102;18.982;2023-02-19T04:11:45;7.60;;;6.90;;
59089;SDS011;44878;50.102;18.982;2023-02-19T04:14:16;9.50;;;8.60;;
59089;SDS011;44878;50.102;18.982;2023-02-19T04:16:43;9.40;;;8.60;;
59089;SDS011;44878;50.102;18.982;2023-02-19T04:19:13;11.55;;;10.55;;
59089;SDS011;44878;50.102;18.982;2023-02-19T04:21:42;10.57;;;9.67;;
59089;SDS011;44878;50.102;18.982;2023-02-19T04:24:21;10.00;;;9.00;;
59089;SDS011;44878;50.102;18.982;2023-02-19T04:26:48;9.73;;;8.83;;
59089;SDS011;44878;50.102;18.982;2023-02-19T04:29:13;9.57;;;8.67;;
59089;SDS011;44878;50.102;18.982;2023-02-19T04:31:39;11.27;;;10.30;;
59089;SDS011;44878;50.102;18.982;2023-02-19T04:34:05;14.60;;;13.30;;
59089;SDS011;44878;50.102;18.982;2023-02-19T04:36:31;13.97;;;12.77;;
59089;SDS011;44878;50.102;18.982;2023-02-19T04:38:57;14.53;;;13.33;;
59089;SDS011;44878;50.102;18.982;2023-02-19T04:41:23;13.70;;;12.57;;
59089;SDS011;44878;50.102;18.982;2023-02-19T04:43:49;13.70;;;12.53;;
59089;SDS011;44878;50.102;18.982;2023-02-19T04:46:15;13.47;;;12.27;;
59089;SDS011;44878;50.102;18.982;2023-02-19T04:48:41;14.67;;;13.47;;
59089;SDS011;44878;50.102;18.982;2023-02-19T04:51:08;13.53;;;12.33;;
59089;SDS011;44878;50.102;18.982;2023-02-19T04:53:34;12.93;;;11.83;;
59089;SDS011;44878;50.102;18.982;2023-02-19T04:56:07;14.27;;;13.00;;
59089;SDS011;44878;50.102;18.982;2023-02-19T04:58:33;11.43;;;10.47;;
59089;SDS011;44878;50.102;18.982;2023-02-19T05:01:00;14.17;;;12.87;;
59089;SDS011;44878;50.102;18.982;2023-02-19T05:03:25;14.13;;;12.83;;
59089;SDS011;44878;50.102;18.982;2023-02-19T05:05:51;13.77;;;12.57;;
59089;SDS011;44878;50.102;18.982;2023-02-19T05:08:17;10.33;;;9.37;;
59089;SDS011;44878;50.102;18.982;2023-02-19T05:10:43;9.73;;;8.93;;
59089;SDS011;44878;50.102;18.982;2023-02-19T05:13:09;10.83;;;9.80;;
59089;SDS011;44878;50.102;18.982;2023-02-19T05:15:35;8.17;;;7.47;;
59089;SDS011;44878;50.102;18.982;2023-02-19T05:18:01;8.70;;;7.90;;
59089;SDS011;44878;50.102;18.982;2023-02-19T05:20:27;7.63;;;6.93;;
59089;SDS011;44878;50.102;18.982;2023-02-19T05:22:53;7.57;;;6.90;;
59089;SDS011;44878;50.102;18.982;2023-02-19T05:25:19;8.23;;;7.43;;
59089;SDS011;44878;50.102;18.982;2023-02-19T05:27:45;8.37;;;7.67;;
59089;SDS011;44878;50.102;18.982;2023-02-19T05:30:11;8.60;;;7.90;;
59089;SDS011;44878;50.102;18.982;2023-02-19T05:32:37;10.00;;;9.10;;
59089;SDS011;44878;50.102;18.982;2023-02-19T05:35:03;9.47;;;8.57;;
59089;SDS011;44878;50.102;18.982;2023-02-19T05:37:29;11.93;;;10.90;;
59089;SDS011;44878;50.102;18.982;2023-02-19T05:39:55;13.60;;;12.37;;
59089;SDS011;44878;50.102;18.982;2023-02-19T05:42:21;10.20;;;9.20;;
59089;SDS011;44878;50.102;18.982;2023-02-19T05:44:47;11.90;;;10.80;;
59089;SDS011;44878;50.102;18.982;2023-02-19T05:47:12;11.17;;;10.27;;
59089;SDS011;44878;50.102;18.982;2023-02-19T05:49:38;12.43;;;11.27;;
59089;SDS011;44878;50.102;18.982;2023-02-19T05:52:04;13.67;;;12.43;;
59089;SDS011;44878;50.102;18.982;2023-02-19T05:54:30;13.63;;;12.47;;
59089;SDS011;44878;50.102;18.982;2023-02-19T05:56:56;12.70;;;11.50;;
59089;SDS011;44878;50.102;18.982;2023-02-19T05:59:23;13.83;;;12.57;;
59089;SDS011;44878;50.102;18.982;2023-02-19T06:01:50;16.97;;;15.43;;
59089;SDS011;44878;50.102;18.982;2023-02-19T06:04:16;18.13;;;16.52;;
59089;SDS011;44878;50.102;18.982;2023-02-19T06:06:44;15.63;;;14.23;;
59089;SDS011;44878;50.102;18.982;2023-02-19T06:09:10;16.23;;;14.83;;
59089;SDS011;44878;50.102;18.982;2023-02-19T06:11:36;18.40;;;16.73;;
59089;SDS011;44878;50.102;18.982;2023-02-19T06:14:03;17.93;;;16.43;;
59089;SDS011;44878;50.102;18.982;2023-02-19T06:16:28;20.70;;;18.87;;
59089;SDS011;44878;50.102;18.982;2023-02-19T06:18:55;16.98;;;15.50;;
59089;SDS011;44878;50.102;18.982;2023-02-19T06:21:21;20.23;;;18.50;;
59089;SDS011;44878;50.102;18.982;2023-02-19T06:23:47;19.27;;;17.67;;
59089;SDS011;44878;50.102;18.982;2023-02-19T06:26:14;23.73;;;21.63;;
59089;SDS011;44878;50.102;18.982;2023-02-19T06:28:40;21.50;;;19.65;;
59089;SDS011;44878;50.102;18.982;2023-02-19T06:31:07;25.90;;;23.60;;
59089;SDS011;44878;50.102;18.982;2023-02-19T06:33:33;26.40;;;24.20;;
59089;SDS011;44878;50.102;18.982;2023-02-19T06:36:00;28.77;;;26.27;;
59089;SDS011;44878;50.102;18.982;2023-02-19T06:38:27;27.17;;;24.75;;
59089;SDS011;44878;50.102;18.982;2023-02-19T06:40:53;29.80;;;27.20;;
59089;SDS011;44878;50.102;18.982;2023-02-19T06:43:19;27.87;;;25.40;;
59089;SDS011;44878;50.102;18.982;2023-02-19T06:45:45;28.23;;;25.90;;
59089;SDS011;44878;50.102;18.982;2023-02-19T06:48:11;31.30;;;28.47;;
59089;SDS011;44878;50.102;18.982;2023-02-19T06:50:37;26.83;;;24.43;;
59089;SDS011;44878;50.102;18.982;2023-02-19T06:53:03;30.67;;;27.97;;
59089;SDS011;44878;50.102;18.982;2023-02-19T06:55:29;29.60;;;27.00;;
59089;SDS011;44878;50.102;18.982;2023-02-19T06:57:55;27.10;;;24.70;;
59089;SDS011;44878;50.102;18.982;2023-02-19T07:00:20;27.87;;;25.47;;
59089;SDS011;44878;50.102;18.982;2023-02-19T07:02:46;27.77;;;25.37;;
59089;SDS011;44878;50.102;18.982;2023-02-19T07:05:12;26.73;;;24.07;;
59089;SDS011;44878;50.102;18.982;2023-02-19T07:07:38;23.83;;;21.67;;
59089;SDS011;44878;50.102;18.982;2023-02-19T07:10:04;23.23;;;21.20;;
59089;SDS011;44878;50.102;18.982;2023-02-19T07:12:30;21.53;;;19.63;;
59089;SDS011;44878;50.102;18.982;2023-02-19T07:14:56;21.67;;;19.77;;
59089;SDS011;44878;50.102;18.982;2023-02-19T07:17:22;22.77;;;20.87;;
59089;SDS011;44878;50.102;18.982;2023-02-19T07:19:47;21.67;;;19.73;;
59089;SDS011;44878;50.102;18.982;2023-02-19T07:22:13;19.27;;;17.57;;
59089;SDS011;44878;50.102;18.982;2023-02-19T07:24:39;19.67;;;17.90;;
59089;SDS011;44878;50.102;18.982;2023-02-19T07:27:05;20.80;;;19.00;;
59089;SDS011;44878;50.102;18.982;2023-02-19T07:29:31;21.03;;;19.03;;
59089;SDS011;44878;50.102;18.982;2023-02-19T07:31:57;19.63;;;17.83;;
59089;SDS011;44878;50.102;18.982;2023-02-19T07:34:23;19.27;;;17.47;;
59089;SDS011;44878;50.102;18.982;2023-02-19T07:36:49;21.40;;;19.57;;
59089;SDS011;44878;50.102;18.982;2023-02-19T07:39:15;20.93;;;19.00;;
59089;SDS011;44878;50.102;18.982;2023-02-19T07:41:41;20.60;;;18.80;;
59089;SDS011;44878;50.102;18.982;2023-02-19T07:44:06;17.77;;;16.27;;
59089;SDS011;44878;50.102;18.982;2023-02-19T07:46:32;17.07;;;15.57;;
59089;SDS011;44878;50.102;18.982;2023-02-19T07:48:58;16.17;;;14.73;;
59089;SDS011;44878;50.102;18.982;2023-02-19T07:51:24;14.17;;;12.97;;
59089;SDS011;44878;50.102;18.982;2023-02-19T07:53:50;14.50;;;13.07;;
59089;SDS011;44878;50.102;18.982;2023-02-19T07:56:16;15.33;;;13.93;;
59089;SDS011;44878;50.102;18.982;2023-02-19T07:58:42;15.63;;;14.23;;
59089;SDS011;44878;50.102;18.982;2023-02-19T08:01:12;15.40;;;14.00;;
59089;SDS011;44878;50.102;18.982;2023-02-19T08:03:38;11.80;;;10.70;;
59089;SDS011;44878;50.102;18.982;2023-02-19T08:06:04;12.57;;;11.30;;
59089;SDS011;44878;50.102;18.982;2023-02-19T08:08:30;11.53;;;10.43;;
59089;SDS011;44878;50.102;18.982;2023-02-19T08:11:00;10.10;;;9.13;;
59089;SDS011;44878;50.102;18.982;2023-02-19T08:13:46;10.40;;;9.13;;
59089;SDS011;44878;50.102;18.982;2023-02-19T08:16:13;8.43;;;7.63;;
59089;SDS011;44878;50.102;18.982;2023-02-19T08:18:42;8.53;;;7.73;;
59089;SDS011;44878;50.102;18.982;2023-02-19T08:21:08;8.57;;;7.67;;
59089;SDS011;44878;50.102;18.982;2023-02-19T08:23:35;9.13;;;6.93;;
59089;SDS011;44878;50.102;18.982;2023-02-19T08:26:01;6.50;;;5.30;;
59089;SDS011;44878;50.102;18.982;2023-02-19T08:28:27;7.57;;;4.97;;
59089;SDS011;44878;50.102;18.982;2023-02-19T08:30:57;5.30;;;4.80;;
59089;SDS011;44878;50.102;18.982;2023-02-19T08:33:23;5.82;;;4.85;;
59089;SDS011;44878;50.102;18.982;2023-02-19T08:35:49;6.25;;;4.88;;
59089;SDS011;44878;50.102;18.982;2023-02-19T08:38:15;6.65;;;5.22;;
59089;SDS011;44878;50.102;18.982;2023-02-19T08:40:41;6.13;;;5.43;;
59089;SDS011;44878;50.102;18.982;2023-02-19T08:43:08;7.05;;;5.10;;
59089;SDS011;44878;50.102;18.982;2023-02-19T08:45:35;6.43;;;5.80;;
59089;SDS011;44878;50.102;18.982;2023-02-19T08:48:01;6.25;;;5.25;;
59089;SDS011;44878;50.102;18.982;2023-02-19T08:50:27;6.90;;;5.50;;
59089;SDS011;44878;50.102;18.982;2023-02-19T08:52:53;13.18;;;11.77;;
59089;SDS011;44878;50.102;18.982;2023-02-19T08:55:19;9.13;;;7.32;;
59089;SDS011;44878;50.102;18.982;2023-02-19T08:57:45;7.72;;;6.93;;
59089;SDS011;44878;50.102;18.982;2023-02-19T09:00:11;8.20;;;7.40;;
59089;SDS011;44878;50.102;18.982;2023-02-19T09:02:37;8.53;;;7.73;;
59089;SDS011;44878;50.102;18.982;2023-02-19T09:05:03;9.27;;;8.32;;
59089;SDS011;44878;50.102;18.982;2023-02-19T09:07:30;9.17;;;8.27;;
59089;SDS011;44878;50.102;18.982;2023-02-19T09:09:56;9.30;;;8.30;;
59089;SDS011;44878;50.102;18.982;2023-02-19T09:12:23;9.50;;;8.60;;
59089;SDS011;44878;50.102;18.982;2023-02-19T09:14:49;9.97;;;8.97;;
59089;SDS011;44878;50.102;18.982;2023-02-19T09:17:15;9.27;;;8.37;;
59089;SDS011;44878;50.102;18.982;2023-02-19T09:19:41;10.17;;;9.00;;
59089;SDS011;44878;50.102;18.982;2023-02-19T09:22:06;9.63;;;8.63;;
59089;SDS011;44878;50.102;18.982;2023-02-19T09:24:32;9.73;;;8.73;;
59089;SDS011;44878;50.102;18.982;2023-02-19T09:26:58;8.70;;;7.80;;
59089;SDS011;44878;50.102;18.982;2023-02-19T09:29:25;9.53;;;8.20;;
59089;SDS011;44878;50.102;18.982;2023-02-19T09:31:54;9.13;;;8.20;;
59089;SDS011;44878;50.102;18.982;2023-02-19T09:34:20;7.60;;;6.30;;
59089;SDS011;44878;50.102;18.982;2023-02-19T09:36:47;7.87;;;6.63;;
59089;SDS011;44878;50.102;18.982;2023-02-19T09:39:14;8.85;;;6.70;;
59089;SDS011;44878;50.102;18.982;2023-02-19T09:44:33;8.00;;;6.17;;
59089;SDS011;44878;50.102;18.982;2023-02-19T09:46:58;6.83;;;5.20;;
59089;SDS011;44878;50.102;18.982;2023-02-19T09:49:27;7.22;;;5.38;;
59089;SDS011;44878;50.102;18.982;2023-02-19T09:51:54;7.63;;;5.57;;
59089;SDS011;44878;50.102;18.982;2023-02-19T09:54:23;8.37;;;6.10;;
59089;SDS011;44878;50.102;18.982;2023-02-19T09:56:49;8.13;;;5.80;;
59089;SDS011;44878;50.102;18.982;2023-02-19T09:59:24;8.57;;;5.77;;
59089;SDS011;44878;50.102;18.982;2023-02-19T10:01:53;6.80;;;5.60;;
59089;SDS011;44878;50.102;18.982;2023-02-19T10:04:20;9.17;;;6.53;;
59089;SDS011;44878;50.102;18.982;2023-02-19T10:06:46;7.97;;;6.60;;
59089;SDS011;44878;50.102;18.982;2023-02-19T10:09:22;8.67;;;6.70;;
59089;SDS011;44878;50.102;18.982;2023-02-19T10:11:52;7.13;;;6.10;;
59089;SDS011;44878;50.102;18.982;2023-02-19T10:16:51;20.83;;;17.27;;
59089;SDS011;44878;50.102;18.982;2023-02-19T10:19:18;7.67;;;6.40;;
59089;SDS011;44878;50.102;18.982;2023-02-19T10:21:44;6.47;;;5.03;;
59089;SDS011;44878;50.102;18.982;2023-02-19T10:24:13;4.77;;;3.40;;
59089;SDS011;44878;50.102;18.982;2023-02-19T10:26:41;9.37;;;8.33;;
59089;SDS011;44878;50.102;18.982;2023-02-19T10:29:08;5.27;;;4.63;;
59089;SDS011;44878;50.102;18.982;2023-02-19T10:31:34;5.70;;;4.33;;
59089;SDS011;44878;50.102;18.982;2023-02-19T10:34:00;6.70;;;5.03;;
59089;SDS011;44878;50.102;18.982;2023-02-19T10:36:35;6.83;;;5.73;;
59089;SDS011;44878;50.102;18.982;2023-02-19T10:39:02;4.70;;;4.20;;
59089;SDS011;44878;50.102;18.982;2023-02-19T10:41:30;6.13;;;5.20;;
59089;SDS011;44878;50.102;18.982;2023-02-19T10:44:01;5.23;;;3.73;;
59089;SDS011;44878;50.102;18.982;2023-02-19T10:46:29;4.83;;;3.90;;
59089;SDS011;44878;50.102;18.982;2023-02-19T10:48:57;4.20;;;3.57;;
59089;SDS011;44878;50.102;18.982;2023-02-19T10:51:34;4.30;;;3.25;;
59089;SDS011;44878;50.102;18.982;2023-02-19T10:54:23;8.52;;;7.60;;
59089;SDS011;44878;50.102;18.982;2023-02-19T10:56:49;12.87;;;11.13;;
59089;SDS011;44878;50.102;18.982;2023-02-19T10:59:25;6.17;;;4.50;;
59089;SDS011;44878;50.102;18.982;2023-02-19T11:01:52;6.43;;;5.13;;
59089;SDS011;44878;50.102;18.982;2023-02-19T11:04:19;7.83;;;6.50;;
59089;SDS011;44878;50.102;18.982;2023-02-19T11:06:45;7.47;;;6.67;;
59089;SDS011;44878;50.102;18.982;2023-02-19T11:09:46;7.53;;;6.77;;
59089;SDS011;44878;50.102;18.982;2023-02-19T11:12:04;8.03;;;6.13;;
59089;SDS011;44878;50.102;18.982;2023-02-19T11:14:31;7.33;;;6.40;;
59089;SDS011;44878;50.102;18.982;2023-02-19T11:16:59;7.72;;;6.82;;
59089;SDS011;44878;50.102;18.982;2023-02-19T11:19:27;5.90;;;5.20;;
59089;SDS011;44878;50.102;18.982;2023-02-19T11:21:54;6.13;;;5.07;;
59089;SDS011;44878;50.102;18.982;2023-02-19T11:24:31;6.80;;;5.47;;
59089;SDS011;44878;50.102;18.982;2023-02-19T11:26:59;7.67;;;5.93;;
59089;SDS011;44878;50.102;18.982;2023-02-19T11:29:26;7.32;;;5.50;;
59089;SDS011;44878;50.102;18.982;2023-02-19T11:31:53;6.72;;;5.28;;
59089;SDS011;44878;50.102;18.982;2023-02-19T11:36:53;6.73;;;5.50;;
59089;SDS011;44878;50.102;18.982;2023-02-19T11:39:32;9.65;;;8.65;;
59089;SDS011;44878;50.102;18.982;2023-02-19T11:42:08;12.23;;;10.93;;
59089;SDS011;44878;50.102;18.982;2023-02-19T11:45:12;4.60;;;3.53;;
59089;SDS011;44878;50.102;18.982;2023-02-19T11:54:49;5.27;;;4.27;;
59089;SDS011;44878;50.102;18.982;2023-02-19T11:59:55;5.77;;;4.87;;
59089;SDS011;44878;50.102;18.982;2023-02-19T12:10:10;4.73;;;3.13;;
59089;SDS011;44878;50.102;18.982;2023-02-19T12:12:51;4.37;;;3.27;;
59089;SDS011;44878;50.102;18.982;2023-02-19T12:20:33;4.90;;;3.13;;
59089;SDS011;44878;50.102;18.982;2023-02-19T12:36:28;6.10;;;4.70;;
59089;SDS011;44878;50.102;18.982;2023-02-19T12:41:45;6.13;;;5.37;;
59089;SDS011;44878;50.102;18.982;2023-02-19T12:47:00;5.90;;;4.80;;
59089;SDS011;44878;50.102;18.982;2023-02-19T12:49:29;5.45;;;4.18;;
59089;SDS011;44878;50.102;18.982;2023-02-19T12:52:08;4.97;;;3.90;;
59089;SDS011;44878;50.102;18.982;2023-02-19T12:54:45;5.70;;;4.80;;
59089;SDS011;44878;50.102;18.982;2023-02-19T12:57:17;4.03;;;3.42;;
59089;SDS011;44878;50.102;18.982;2023-02-19T12:59:55;6.30;;;4.87;;
59089;SDS011;44878;50.102;18.982;2023-02-19T13:02:39;4.73;;;3.60;;
59089;SDS011;44878;50.102;18.982;2023-02-19T13:07:57;5.07;;;3.47;;
59089;SDS011;44878;50.102;18.982;2023-02-19T13:10:25;4.63;;;4.03;;
59089;SDS011;44878;50.102;18.982;2023-02-19T13:12:52;5.87;;;4.00;;
59089;SDS011;44878;50.102;18.982;2023-02-19T13:15:20;5.07;;;4.30;;
59089;SDS011;44878;50.102;18.982;2023-02-19T13:17:50;7.00;;;4.77;;
59089;SDS011;44878;50.102;18.982;2023-02-19T13:23:03;6.87;;;5.00;;
59089;SDS011;44878;50.102;18.982;2023-02-19T13:31:20;5.93;;;4.30;;
59089;SDS011;44878;50.102;18.982;2023-02-19T13:36:26;4.93;;;3.57;;
59089;SDS011;44878;50.102;18.982;2023-02-19T13:38:55;6.03;;;3.30;;
59089;SDS011;44878;50.102;18.982;2023-02-19T13:43:55;4.93;;;3.20;;
59089;SDS011;44878;50.102;18.982;2023-02-19T13:46:22;6.33;;;3.80;;
59089;SDS011;44878;50.102;18.982;2023-02-19T13:49:22;5.70;;;3.70;;
59089;SDS011;44878;50.102;18.982;2023-02-19T13:51:37;7.38;;;3.65;;
59089;SDS011;44878;50.102;18.982;2023-02-19T13:54:12;6.47;;;3.83;;
59089;SDS011;44878;50.102;18.982;2023-02-19T13:56:39;6.53;;;4.23;;
59089;SDS011;44878;50.102;18.982;2023-02-19T14:04:24;7.33;;;4.47;;
59089;SDS011;44878;50.102;18.982;2023-02-19T14:14:46;7.37;;;4.07;;
59089;SDS011;44878;50.102;18.982;2023-02-19T14:20:01;7.53;;;4.80;;
59089;SDS011;44878;50.102;18.982;2023-02-19T14:25:26;6.97;;;4.30;;
59089;SDS011;44878;50.102;18.982;2023-02-19T14:27:56;6.83;;;4.33;;
59089;SDS011;44878;50.102;18.982;2023-02-19T14:30:25;6.67;;;4.40;;
59089;SDS011;44878;50.102;18.982;2023-02-19T14:32:52;5.97;;;4.30;;
59089;SDS011;44878;50.102;18.982;2023-02-19T14:35:19;7.95;;;4.68;;
59089;SDS011;44878;50.102;18.982;2023-02-19T14:37:46;7.35;;;4.68;;
59089;SDS011;44878;50.102;18.982;2023-02-19T14:42:40;8.53;;;6.53;;
59089;SDS011;44878;50.102;18.982;2023-02-19T14:45:07;8.77;;;6.55;;
59089;SDS011;44878;50.102;18.982;2023-02-19T14:47:34;8.47;;;6.80;;
59089;SDS011;44878;50.102;18.982;2023-02-19T14:50:05;29.15;;;25.95;;
59089;SDS011;44878;50.102;18.982;2023-02-19T14:55:07;10.97;;;8.40;;
59089;SDS011;44878;50.102;18.982;2023-02-19T14:57:35;11.63;;;7.67;;
59089;SDS011;44878;50.102;18.982;2023-02-19T15:00:13;9.63;;;7.07;;
59089;SDS011;44878;50.102;18.982;2023-02-19T15:02:45;10.50;;;6.73;;
59089;SDS011;44878;50.102;18.982;2023-02-19T15:05:16;8.05;;;5.22;;
59089;SDS011;44878;50.102;18.982;2023-02-19T15:07:42;7.73;;;4.33;;
59089;SDS011;44878;50.102;18.982;2023-02-19T15:10:10;7.55;;;4.72;;
59089;SDS011;44878;50.102;18.982;2023-02-19T15:12:41;8.47;;;5.17;;
59089;SDS011;44878;50.102;18.982;2023-02-19T15:15:30;7.50;;;5.03;;
59089;SDS011;44878;50.102;18.982;2023-02-19T15:17:58;7.20;;;5.32;;
59089;SDS011;44878;50.102;18.982;2023-02-19T15:20:27;8.00;;;5.60;;
59089;SDS011;44878;50.102;18.982;2023-02-19T15:22:54;8.33;;;5.40;;
59089;SDS011;44878;50.102;18.982;2023-02-19T15:25:22;9.53;;;6.10;;
59089;SDS011;44878;50.102;18.982;2023-02-19T15:27:49;22.13;;;19.03;;
59089;SDS011;44878;50.102;18.982;2023-02-19T15:30:20;18.83;;;13.27;;
59089;SDS011;44878;50.102;18.982;2023-02-19T15:32:58;9.93;;;6.27;;
59089;SDS011;44878;50.102;18.982;2023-02-19T15:35:26;8.80;;;5.85;;
59089;SDS011;44878;50.102;18.982;2023-02-19T15:37:55;10.10;;;6.90;;
59089;SDS011;44878;50.102;18.982;2023-02-19T15:40:28;7.27;;;5.67;;
59089;SDS011;44878;50.102;18.982;2023-02-19T15:42:55;17.17;;;14.70;;
59089;SDS011;44878;50.102;18.982;2023-02-19T15:45:24;12.32;;;6.75;;
59089;SDS011;44878;50.102;18.982;2023-02-19T15:48:03;11.70;;;7.27;;
59089;SDS011;44878;50.102;18.982;2023-02-19T15:50:41;11.00;;;7.13;;
59089;SDS011;44878;50.102;18.982;2023-02-19T15:53:17;15.53;;;12.47;;
59089;SDS011;44878;50.102;18.982;2023-02-19T15:55:47;16.00;;;12.00;;
59089;SDS011;44878;50.102;18.982;2023-02-19T16:00:45;11.60;;;8.17;;
59089;SDS011;44878;50.102;18.982;2023-02-19T16:03:17;10.67;;;7.80;;
59089;SDS011;44878;50.102;18.982;2023-02-19T16:05:45;10.83;;;7.80;;
59089;SDS011;44878;50.102;18.982;2023-02-19T16:08:19;11.57;;;7.43;;
59089;SDS011;44878;50.102;18.982;2023-02-19T16:10:53;14.23;;;8.43;;
59089;SDS011;44878;50.102;18.982;2023-02-19T16:13:24;9.87;;;7.23;;
59089;SDS011;44878;50.102;18.982;2023-02-19T16:15:58;9.60;;;6.30;;
59089;SDS011;44878;50.102;18.982;2023-02-19T16:18:26;11.00;;;6.93;;
59089;SDS011;44878;50.102;18.982;2023-02-19T16:20:52;12.13;;;6.57;;
59089;SDS011;44878;50.102;18.982;2023-02-19T16:23:18;12.13;;;7.77;;
59089;SDS011;44878;50.102;18.982;2023-02-19T16:25:59;11.57;;;8.07;;
59089;SDS011;44878;50.102;18.982;2023-02-19T16:28:29;11.87;;;7.37;;
59089;SDS011;44878;50.102;18.982;2023-02-19T16:31:00;12.77;;;9.37;;
59089;SDS011;44878;50.102;18.982;2023-02-19T16:36:21;12.80;;;9.57;;
59089;SDS011;44878;50.102;18.982;2023-02-19T16:41:26;19.07;;;14.73;;
59089;SDS011;44878;50.102;18.982;2023-02-19T16:43:53;13.15;;;9.55;;
59089;SDS011;44878;50.102;18.982;2023-02-19T16:46:20;13.60;;;9.87;;